sensor_id;sensor_type;location;lat;lon;timestamp;P1;durP1;ratioP1;P2;durP2;ratioP2
4434;SDS011;46552;52.150;8.428;2024-01-30T00:00:41;22.20;;;11.73;;
4434;SDS011;46552;52.150;8.428;2024-01-30T00:03:08;21.53;;;11.57;;
4434;SDS011;46552;52.150;8.428;2024-01-30T00:05:35;18.30;;;11.03;;
4434;SDS011;46552;52.150;8.428;2024-01-30T00:08:04;20.40;;;11.13;;
4434;SDS011;46552;52.150;8.428;2024-01-30T00:10:32;21.93;;;11.20;;
4434;SDS011;46552;52.150;8.428;2024-01-30T00:12:59;14.90;;;9.73;;
4434;SDS011;46552;52.150;8.428;2024-01-30T00:15:27;16.03;;;11.13;;
4434;SDS011;46552;52.150;8.428;2024-01-30T00:17:54;21.67;;;12.53;;
4434;SDS011;46552;52.150;8.428;2024-01-30T00:20:22;19.40;;;12.10;;
4434;SDS011;46552;52.150;8.428;2024-01-30T00:22:49;21.47;;;12.33;;
4434;SDS011;46552;52.150;8.428;2024-01-30T00:25:17;22.13;;;11.03;;
4434;SDS011;46552;52.150;8.428;2024-01-30T00:27:45;20.93;;;12.47;;
4434;SDS011;46552;52.150;8.428;2024-01-30T00:30:12;18.93;;;10.93;;
4434;SDS011;46552;52.150;8.428;2024-01-30T00:32:40;19.90;;;12.37;;
4434;SDS011;46552;52.150;8.428;2024-01-30T00:35:08;21.60;;;12.30;;
4434;SDS011;46552;52.150;8.428;2024-01-30T00:37:36;19.33;;;11.33;;
4434;SDS011;46552;52.150;8.428;2024-01-30T00:40:03;24.20;;;12.97;;
4434;SDS011;46552;52.150;8.428;2024-01-30T00:42:34;23.93;;;13.30;;
4434;SDS011;46552;52.150;8.428;2024-01-30T00:45:02;16.53;;;12.20;;
4434;SDS011;46552;52.150;8.428;2024-01-30T00:47:30;23.77;;;13.53;;
4434;SDS011;46552;52.150;8.428;2024-01-30T00:49:58;20.83;;;11.77;;
4434;SDS011;46552;52.150;8.428;2024-01-30T00:52:26;21.53;;;12.67;;
4434;SDS011;46552;52.150;8.428;2024-01-30T00:54:53;19.37;;;10.83;;
4434;SDS011;46552;52.150;8.428;2024-01-30T00:57:20;22.17;;;11.97;;
4434;SDS011;46552;52.150;8.428;2024-01-30T00:59:50;22.90;;;12.80;;
4434;SDS011;46552;52.150;8.428;2024-01-30T01:02:19;19.13;;;11.57;;
4434;SDS011;46552;52.150;8.428;2024-01-30T01:04:46;18.97;;;11.43;;
4434;SDS011;46552;52.150;8.428;2024-01-30T01:07:13;27.40;;;11.93;;
4434;SDS011;46552;52.150;8.428;2024-01-30T01:09:41;18.03;;;11.10;;
4434;SDS011;46552;52.150;8.428;2024-01-30T01:12:08;28.77;;;14.27;;
4434;SDS011;46552;52.150;8.428;2024-01-30T01:14:35;21.73;;;11.90;;
4434;SDS011;46552;52.150;8.428;2024-01-30T01:17:03;22.60;;;14.23;;
4434;SDS011;46552;52.150;8.428;2024-01-30T01:19:31;24.87;;;13.73;;
4434;SDS011;46552;52.150;8.428;2024-01-30T01:21:58;27.23;;;14.40;;
4434;SDS011;46552;52.150;8.428;2024-01-30T01:24:25;29.60;;;14.10;;
4434;SDS011;46552;52.150;8.428;2024-01-30T01:26:53;28.07;;;15.07;;
4434;SDS011;46552;52.150;8.428;2024-01-30T01:29:21;27.60;;;14.00;;
4434;SDS011;46552;52.150;8.428;2024-01-30T01:31:53;26.03;;;13.50;;
4434;SDS011;46552;52.150;8.428;2024-01-30T01:34:22;19.87;;;13.23;;
4434;SDS011;46552;52.150;8.428;2024-01-30T01:36:51;28.40;;;15.43;;
4434;SDS011;46552;52.150;8.428;2024-01-30T01:39:20;24.03;;;13.13;;
4434;SDS011;46552;52.150;8.428;2024-01-30T01:41:49;20.00;;;11.10;;
4434;SDS011;46552;52.150;8.428;2024-01-30T01:44:17;21.03;;;11.87;;
4434;SDS011;46552;52.150;8.428;2024-01-30T01:46:44;28.00;;;13.30;;
4434;SDS011;46552;52.150;8.428;2024-01-30T01:49:12;20.23;;;12.90;;
4434;SDS011;46552;52.150;8.428;2024-01-30T01:51:42;19.83;;;13.03;;
4434;SDS011;46552;52.150;8.428;2024-01-30T01:54:12;20.87;;;12.57;;
4434;SDS011;46552;52.150;8.428;2024-01-30T01:56:40;19.87;;;12.13;;
4434;SDS011;46552;52.150;8.428;2024-01-30T01:59:10;21.40;;;13.70;;
4434;SDS011;46552;52.150;8.428;2024-01-30T02:01:38;26.40;;;14.50;;
4434;SDS011;46552;52.150;8.428;2024-01-30T02:04:06;24.00;;;15.00;;
4434;SDS011;46552;52.150;8.428;2024-01-30T02:06:34;20.60;;;12.00;;
4434;SDS011;46552;52.150;8.428;2024-01-30T02:09:03;22.60;;;14.37;;
4434;SDS011;46552;52.150;8.428;2024-01-30T02:11:30;24.97;;;12.60;;
4434;SDS011;46552;52.150;8.428;2024-01-30T02:14:01;22.07;;;13.47;;
4434;SDS011;46552;52.150;8.428;2024-01-30T02:16:29;27.43;;;14.60;;
4434;SDS011;46552;52.150;8.428;2024-01-30T02:18:57;20.13;;;11.90;;
4434;SDS011;46552;52.150;8.428;2024-01-30T02:21:25;21.13;;;13.00;;
4434;SDS011;46552;52.150;8.428;2024-01-30T02:23:53;26.47;;;13.60;;
4434;SDS011;46552;52.150;8.428;2024-01-30T02:26:22;25.90;;;13.97;;
4434;SDS011;46552;52.150;8.428;2024-01-30T02:28:49;26.27;;;13.47;;
4434;SDS011;46552;52.150;8.428;2024-01-30T02:31:17;25.57;;;13.10;;
4434;SDS011;46552;52.150;8.428;2024-01-30T02:33:44;21.77;;;12.97;;
4434;SDS011;46552;52.150;8.428;2024-01-30T02:36:11;19.40;;;12.67;;
4434;SDS011;46552;52.150;8.428;2024-01-30T02:38:42;21.60;;;11.70;;
4434;SDS011;46552;52.150;8.428;2024-01-30T02:41:11;18.93;;;11.83;;
4434;SDS011;46552;52.150;8.428;2024-01-30T02:43:39;23.13;;;13.90;;
4434;SDS011;46552;52.150;8.428;2024-01-30T02:46:06;17.53;;;10.40;;
4434;SDS011;46552;52.150;8.428;2024-01-30T02:48:33;17.43;;;10.60;;
4434;SDS011;46552;52.150;8.428;2024-01-30T02:51:01;17.03;;;11.77;;
4434;SDS011;46552;52.150;8.428;2024-01-30T02:53:28;19.43;;;11.77;;
4434;SDS011;46552;52.150;8.428;2024-01-30T02:55:57;18.43;;;12.30;;
4434;SDS011;46552;52.150;8.428;2024-01-30T02:58:25;19.50;;;11.40;;
4434;SDS011;46552;52.150;8.428;2024-01-30T03:00:52;28.33;;;11.90;;
4434;SDS011;46552;52.150;8.428;2024-01-30T03:03:20;19.67;;;12.03;;
4434;SDS011;46552;52.150;8.428;2024-01-30T03:05:47;23.13;;;10.17;;
4434;SDS011;46552;52.150;8.428;2024-01-30T03:08:14;17.47;;;11.83;;
4434;SDS011;46552;52.150;8.428;2024-01-30T03:10:42;22.20;;;12.60;;
4434;SDS011;46552;52.150;8.428;2024-01-30T03:13:10;23.10;;;11.67;;
4434;SDS011;46552;52.150;8.428;2024-01-30T03:15:37;24.60;;;13.40;;
4434;SDS011;46552;52.150;8.428;2024-01-30T03:18:05;23.43;;;12.50;;
4434;SDS011;46552;52.150;8.428;2024-01-30T03:20:32;19.03;;;13.43;;
4434;SDS011;46552;52.150;8.428;2024-01-30T03:22:59;17.90;;;12.40;;
4434;SDS011;46552;52.150;8.428;2024-01-30T03:25:27;18.63;;;13.33;;
4434;SDS011;46552;52.150;8.428;2024-01-30T03:27:56;21.97;;;13.50;;
4434;SDS011;46552;52.150;8.428;2024-01-30T03:30:25;17.97;;;12.30;;
4434;SDS011;46552;52.150;8.428;2024-01-30T03:32:52;21.60;;;13.20;;
4434;SDS011;46552;52.150;8.428;2024-01-30T03:35:19;20.23;;;12.57;;
4434;SDS011;46552;52.150;8.428;2024-01-30T03:37:47;26.23;;;13.23;;
4434;SDS011;46552;52.150;8.428;2024-01-30T03:40:14;21.90;;;11.63;;
4434;SDS011;46552;52.150;8.428;2024-01-30T03:42:42;23.40;;;13.37;;
4434;SDS011;46552;52.150;8.428;2024-01-30T03:45:11;25.20;;;13.87;;
4434;SDS011;46552;52.150;8.428;2024-01-30T03:47:40;21.50;;;13.30;;
4434;SDS011;46552;52.150;8.428;2024-01-30T03:50:10;20.53;;;13.30;;
4434;SDS011;46552;52.150;8.428;2024-01-30T03:52:39;28.33;;;13.60;;
4434;SDS011;46552;52.150;8.428;2024-01-30T03:55:06;20.67;;;13.80;;
4434;SDS011;46552;52.150;8.428;2024-01-30T03:57:34;23.53;;;12.47;;
4434;SDS011;46552;52.150;8.428;2024-01-30T04:00:01;22.30;;;14.23;;
4434;SDS011;46552;52.150;8.428;2024-01-30T04:02:30;22.83;;;14.33;;
4434;SDS011;46552;52.150;8.428;2024-01-30T04:04:59;22.10;;;13.13;;
4434;SDS011;46552;52.150;8.428;2024-01-30T04:07:26;22.57;;;12.83;;
4434;SDS011;46552;52.150;8.428;2024-01-30T04:09:54;27.63;;;13.60;;
4434;SDS011;46552;52.150;8.428;2024-01-30T04:12:21;27.33;;;13.17;;
4434;SDS011;46552;52.150;8.428;2024-01-30T04:14:48;24.97;;;13.83;;
4434;SDS011;46552;52.150;8.428;2024-01-30T04:17:15;27.80;;;15.10;;
4434;SDS011;46552;52.150;8.428;2024-01-30T04:19:43;20.40;;;12.87;;
4434;SDS011;46552;52.150;8.428;2024-01-30T04:22:11;26.30;;;15.43;;
4434;SDS011;46552;52.150;8.428;2024-01-30T04:24:39;23.93;;;13.93;;
4434;SDS011;46552;52.150;8.428;2024-01-30T04:27:06;28.33;;;14.60;;
4434;SDS011;46552;52.150;8.428;2024-01-30T04:29:33;25.07;;;14.43;;
4434;SDS011;46552;52.150;8.428;2024-01-30T04:32:00;29.70;;;15.53;;
4434;SDS011;46552;52.150;8.428;2024-01-30T04:34:28;28.60;;;15.50;;
4434;SDS011;46552;52.150;8.428;2024-01-30T04:36:55;27.33;;;15.87;;
4434;SDS011;46552;52.150;8.428;2024-01-30T04:39:25;28.47;;;16.57;;
4434;SDS011;46552;52.150;8.428;2024-01-30T04:41:52;30.43;;;17.77;;
4434;SDS011;46552;52.150;8.428;2024-01-30T04:44:20;31.00;;;18.30;;
4434;SDS011;46552;52.150;8.428;2024-01-30T04:46:47;39.57;;;16.30;;
4434;SDS011;46552;52.150;8.428;2024-01-30T04:49:14;30.03;;;15.90;;
4434;SDS011;46552;52.150;8.428;2024-01-30T04:51:41;28.07;;;16.47;;
4434;SDS011;46552;52.150;8.428;2024-01-30T04:54:08;31.77;;;17.40;;
4434;SDS011;46552;52.150;8.428;2024-01-30T04:56:37;35.87;;;16.60;;
4434;SDS011;46552;52.150;8.428;2024-01-30T04:59:04;32.10;;;16.33;;
4434;SDS011;46552;52.150;8.428;2024-01-30T05:01:33;27.77;;;16.03;;
4434;SDS011;46552;52.150;8.428;2024-01-30T05:04:01;34.07;;;17.27;;
4434;SDS011;46552;52.150;8.428;2024-01-30T05:06:28;30.40;;;14.63;;
4434;SDS011;46552;52.150;8.428;2024-01-30T05:08:56;29.53;;;17.00;;
4434;SDS011;46552;52.150;8.428;2024-01-30T05:11:23;28.07;;;15.83;;
4434;SDS011;46552;52.150;8.428;2024-01-30T05:13:52;29.50;;;14.97;;
4434;SDS011;46552;52.150;8.428;2024-01-30T05:16:19;24.87;;;15.27;;
4434;SDS011;46552;52.150;8.428;2024-01-30T05:18:47;29.57;;;15.10;;
4434;SDS011;46552;52.150;8.428;2024-01-30T05:21:14;25.70;;;15.07;;
4434;SDS011;46552;52.150;8.428;2024-01-30T05:23:41;26.03;;;13.87;;
4434;SDS011;46552;52.150;8.428;2024-01-30T05:26:08;24.47;;;13.93;;
4434;SDS011;46552;52.150;8.428;2024-01-30T05:28:36;24.37;;;12.80;;
4434;SDS011;46552;52.150;8.428;2024-01-30T05:31:04;26.07;;;13.40;;
4434;SDS011;46552;52.150;8.428;2024-01-30T05:33:31;21.57;;;12.60;;
4434;SDS011;46552;52.150;8.428;2024-01-30T05:36:00;20.87;;;12.10;;
4434;SDS011;46552;52.150;8.428;2024-01-30T05:38:29;26.40;;;12.70;;
4434;SDS011;46552;52.150;8.428;2024-01-30T05:40:57;19.90;;;12.93;;
4434;SDS011;46552;52.150;8.428;2024-01-30T05:43:24;21.37;;;12.93;;
4434;SDS011;46552;52.150;8.428;2024-01-30T05:45:53;26.43;;;14.00;;
4434;SDS011;46552;52.150;8.428;2024-01-30T05:48:21;22.57;;;13.13;;
4434;SDS011;46552;52.150;8.428;2024-01-30T05:50:48;26.30;;;14.97;;
4434;SDS011;46552;52.150;8.428;2024-01-30T05:53:16;22.30;;;14.70;;
4434;SDS011;46552;52.150;8.428;2024-01-30T05:55:43;22.93;;;13.93;;
4434;SDS011;46552;52.150;8.428;2024-01-30T05:58:11;28.77;;;14.50;;
4434;SDS011;46552;52.150;8.428;2024-01-30T06:00:39;28.03;;;15.40;;
4434;SDS011;46552;52.150;8.428;2024-01-30T06:03:06;24.30;;;14.23;;
4434;SDS011;46552;52.150;8.428;2024-01-30T06:05:35;26.93;;;14.40;;
4434;SDS011;46552;52.150;8.428;2024-01-30T06:08:02;22.80;;;14.33;;
4434;SDS011;46552;52.150;8.428;2024-01-30T06:10:29;28.20;;;15.03;;
4434;SDS011;46552;52.150;8.428;2024-01-30T06:12:56;24.97;;;14.53;;
4434;SDS011;46552;52.150;8.428;2024-01-30T06:15:23;27.43;;;13.93;;
4434;SDS011;46552;52.150;8.428;2024-01-30T06:17:51;25.00;;;13.60;;
4434;SDS011;46552;52.150;8.428;2024-01-30T06:20:18;30.97;;;16.30;;
4434;SDS011;46552;52.150;8.428;2024-01-30T06:22:47;27.00;;;14.60;;
4434;SDS011;46552;52.150;8.428;2024-01-30T06:25:14;21.37;;;13.50;;
4434;SDS011;46552;52.150;8.428;2024-01-30T06:27:42;30.87;;;15.03;;
4434;SDS011;46552;52.150;8.428;2024-01-30T06:30:10;30.10;;;13.87;;
4434;SDS011;46552;52.150;8.428;2024-01-30T06:32:37;23.40;;;14.27;;
4434;SDS011;46552;52.150;8.428;2024-01-30T06:35:05;24.90;;;14.30;;
4434;SDS011;46552;52.150;8.428;2024-01-30T06:37:33;22.73;;;14.57;;
4434;SDS011;46552;52.150;8.428;2024-01-30T06:40:03;22.83;;;13.50;;
4434;SDS011;46552;52.150;8.428;2024-01-30T06:42:31;27.80;;;15.70;;
4434;SDS011;46552;52.150;8.428;2024-01-30T06:44:58;26.10;;;14.90;;
4434;SDS011;46552;52.150;8.428;2024-01-30T06:47:25;23.23;;;15.43;;
4434;SDS011;46552;52.150;8.428;2024-01-30T06:49:53;35.60;;;15.60;;
4434;SDS011;46552;52.150;8.428;2024-01-30T06:52:20;27.50;;;14.87;;
4434;SDS011;46552;52.150;8.428;2024-01-30T06:54:48;24.20;;;13.67;;
4434;SDS011;46552;52.150;8.428;2024-01-30T06:57:16;26.47;;;14.90;;
4434;SDS011;46552;52.150;8.428;2024-01-30T06:59:45;26.97;;;14.83;;
4434;SDS011;46552;52.150;8.428;2024-01-30T07:02:12;24.17;;;14.57;;
4434;SDS011;46552;52.150;8.428;2024-01-30T07:04:39;27.37;;;13.30;;
4434;SDS011;46552;52.150;8.428;2024-01-30T07:07:07;26.37;;;15.20;;
4434;SDS011;46552;52.150;8.428;2024-01-30T07:09:37;30.23;;;15.20;;
4434;SDS011;46552;52.150;8.428;2024-01-30T07:12:06;27.27;;;15.33;;
4434;SDS011;46552;52.150;8.428;2024-01-30T07:14:35;33.40;;;16.43;;
4434;SDS011;46552;52.150;8.428;2024-01-30T07:17:03;26.83;;;14.43;;
4434;SDS011;46552;52.150;8.428;2024-01-30T07:19:31;23.80;;;14.37;;
4434;SDS011;46552;52.150;8.428;2024-01-30T07:21:59;25.00;;;14.13;;
4434;SDS011;46552;52.150;8.428;2024-01-30T07:24:28;27.17;;;15.17;;
4434;SDS011;46552;52.150;8.428;2024-01-30T07:26:55;29.40;;;14.33;;
4434;SDS011;46552;52.150;8.428;2024-01-30T07:29:22;22.57;;;14.10;;
4434;SDS011;46552;52.150;8.428;2024-01-30T07:31:51;25.70;;;14.60;;
4434;SDS011;46552;52.150;8.428;2024-01-30T07:34:18;23.00;;;14.97;;
4434;SDS011;46552;52.150;8.428;2024-01-30T07:36:45;26.83;;;14.33;;
4434;SDS011;46552;52.150;8.428;2024-01-30T07:39:13;24.50;;;14.97;;
4434;SDS011;46552;52.150;8.428;2024-01-30T07:41:40;24.17;;;14.17;;
4434;SDS011;46552;52.150;8.428;2024-01-30T07:44:07;24.10;;;14.13;;
4434;SDS011;46552;52.150;8.428;2024-01-30T07:46:34;25.90;;;15.70;;
4434;SDS011;46552;52.150;8.428;2024-01-30T07:49:04;23.40;;;14.07;;
4434;SDS011;46552;52.150;8.428;2024-01-30T07:51:31;22.90;;;12.50;;
4434;SDS011;46552;52.150;8.428;2024-01-30T07:53:59;28.63;;;14.47;;
4434;SDS011;46552;52.150;8.428;2024-01-30T07:56:26;18.93;;;12.20;;
4434;SDS011;46552;52.150;8.428;2024-01-30T07:58:53;28.07;;;13.87;;
4434;SDS011;46552;52.150;8.428;2024-01-30T08:01:20;22.33;;;14.23;;
4434;SDS011;46552;52.150;8.428;2024-01-30T08:03:47;22.00;;;12.40;;
4434;SDS011;46552;52.150;8.428;2024-01-30T08:06:16;23.10;;;12.77;;
4434;SDS011;46552;52.150;8.428;2024-01-30T08:08:43;23.37;;;12.80;;
4434;SDS011;46552;52.150;8.428;2024-01-30T08:11:11;22.30;;;12.77;;
4434;SDS011;46552;52.150;8.428;2024-01-30T08:13:39;18.20;;;10.70;;
4434;SDS011;46552;52.150;8.428;2024-01-30T08:16:06;19.60;;;12.30;;
4434;SDS011;46552;52.150;8.428;2024-01-30T08:18:33;18.40;;;11.80;;
4434;SDS011;46552;52.150;8.428;2024-01-30T08:21:01;17.53;;;10.23;;
4434;SDS011;46552;52.150;8.428;2024-01-30T08:23:29;15.13;;;9.97;;
4434;SDS011;46552;52.150;8.428;2024-01-30T08:25:56;19.70;;;10.97;;
4434;SDS011;46552;52.150;8.428;2024-01-30T08:28:24;19.17;;;10.70;;
4434;SDS011;46552;52.150;8.428;2024-01-30T08:30:51;20.37;;;10.80;;
4434;SDS011;46552;52.150;8.428;2024-01-30T08:33:18;18.13;;;10.17;;
4434;SDS011;46552;52.150;8.428;2024-01-30T08:35:45;16.20;;;9.20;;
4434;SDS011;46552;52.150;8.428;2024-01-30T08:38:12;16.83;;;9.30;;
4434;SDS011;46552;52.150;8.428;2024-01-30T08:40:41;14.10;;;9.70;;
4434;SDS011;46552;52.150;8.428;2024-01-30T08:43:09;15.60;;;10.60;;
4434;SDS011;46552;52.150;8.428;2024-01-30T08:45:37;16.40;;;9.27;;
4434;SDS011;46552;52.150;8.428;2024-01-30T08:48:05;22.40;;;9.73;;
4434;SDS011;46552;52.150;8.428;2024-01-30T08:50:33;17.43;;;10.10;;
4434;SDS011;46552;52.150;8.428;2024-01-30T08:53:00;19.53;;;10.50;;
4434;SDS011;46552;52.150;8.428;2024-01-30T08:55:27;19.20;;;9.63;;
4434;SDS011;46552;52.150;8.428;2024-01-30T08:57:56;15.63;;;9.10;;
4434;SDS011;46552;52.150;8.428;2024-01-30T09:00:24;15.60;;;9.90;;
4434;SDS011;46552;52.150;8.428;2024-01-30T09:02:51;16.23;;;9.07;;
4434;SDS011;46552;52.150;8.428;2024-01-30T09:05:18;16.37;;;9.13;;
4434;SDS011;46552;52.150;8.428;2024-01-30T09:07:46;23.87;;;13.20;;
4434;SDS011;46552;52.150;8.428;2024-01-30T09:10:13;20.30;;;11.40;;
4434;SDS011;46552;52.150;8.428;2024-01-30T09:12:40;17.67;;;9.30;;
4434;SDS011;46552;52.150;8.428;2024-01-30T09:15:10;14.50;;;9.30;;
4434;SDS011;46552;52.150;8.428;2024-01-30T09:17:37;20.93;;;10.43;;
4434;SDS011;46552;52.150;8.428;2024-01-30T09:20:04;19.80;;;9.63;;
4434;SDS011;46552;52.150;8.428;2024-01-30T09:22:32;17.70;;;8.93;;
4434;SDS011;46552;52.150;8.428;2024-01-30T09:24:59;14.00;;;8.23;;
4434;SDS011;46552;52.150;8.428;2024-01-30T09:27:26;17.07;;;7.70;;
4434;SDS011;46552;52.150;8.428;2024-01-30T09:29:53;15.10;;;9.37;;
4434;SDS011;46552;52.150;8.428;2024-01-30T09:32:21;17.40;;;8.13;;
4434;SDS011;46552;52.150;8.428;2024-01-30T09:34:49;17.27;;;8.80;;
4434;SDS011;46552;52.150;8.428;2024-01-30T09:37:16;11.90;;;6.87;;
4434;SDS011;46552;52.150;8.428;2024-01-30T09:39:43;15.17;;;9.30;;
4434;SDS011;46552;52.150;8.428;2024-01-30T09:42:12;14.60;;;8.13;;
4434;SDS011;46552;52.150;8.428;2024-01-30T09:44:44;18.63;;;8.27;;
4434;SDS011;46552;52.150;8.428;2024-01-30T09:47:17;16.70;;;8.40;;
4434;SDS011;46552;52.150;8.428;2024-01-30T09:49:46;13.40;;;8.10;;
4434;SDS011;46552;52.150;8.428;2024-01-30T09:52:14;13.70;;;7.77;;
4434;SDS011;46552;52.150;8.428;2024-01-30T09:54:41;16.00;;;8.60;;
4434;SDS011;46552;52.150;8.428;2024-01-30T09:57:09;13.93;;;7.63;;
4434;SDS011;46552;52.150;8.428;2024-01-30T09:59:38;15.43;;;8.63;;
4434;SDS011;46552;52.150;8.428;2024-01-30T10:02:05;14.20;;;8.03;;
4434;SDS011;46552;52.150;8.428;2024-01-30T10:04:33;12.67;;;8.10;;
4434;SDS011;46552;52.150;8.428;2024-01-30T10:07:02;16.50;;;9.00;;
4434;SDS011;46552;52.150;8.428;2024-01-30T10:09:31;11.90;;;6.80;;
4434;SDS011;46552;52.150;8.428;2024-01-30T10:11:59;13.47;;;8.07;;
4434;SDS011;46552;52.150;8.428;2024-01-30T10:14:30;15.80;;;9.10;;
4434;SDS011;46552;52.150;8.428;2024-01-30T10:16:57;11.87;;;7.93;;
4434;SDS011;46552;52.150;8.428;2024-01-30T10:19:24;20.30;;;7.30;;
4434;SDS011;46552;52.150;8.428;2024-01-30T10:21:52;14.00;;;8.43;;
4434;SDS011;46552;52.150;8.428;2024-01-30T10:24:24;15.20;;;7.53;;
4434;SDS011;46552;52.150;8.428;2024-01-30T10:26:52;16.23;;;8.53;;
4434;SDS011;46552;52.150;8.428;2024-01-30T10:29:21;18.23;;;8.60;;
4434;SDS011;46552;52.150;8.428;2024-01-30T10:31:57;19.83;;;8.60;;
4434;SDS011;46552;52.150;8.428;2024-01-30T10:34:24;10.80;;;6.97;;
4434;SDS011;46552;52.150;8.428;2024-01-30T10:36:55;16.03;;;8.20;;
4434;SDS011;46552;52.150;8.428;2024-01-30T10:39:29;11.77;;;6.70;;
4434;SDS011;46552;52.150;8.428;2024-01-30T10:41:59;18.13;;;7.43;;
4434;SDS011;46552;52.150;8.428;2024-01-30T10:44:34;11.70;;;6.70;;
4434;SDS011;46552;52.150;8.428;2024-01-30T10:47:06;19.67;;;8.23;;
4434;SDS011;46552;52.150;8.428;2024-01-30T10:49:37;16.53;;;7.13;;
4434;SDS011;46552;52.150;8.428;2024-01-30T10:52:05;17.60;;;7.20;;
4434;SDS011;46552;52.150;8.428;2024-01-30T10:54:35;17.07;;;7.70;;
4434;SDS011;46552;52.150;8.428;2024-01-30T10:57:04;11.30;;;5.90;;
4434;SDS011;46552;52.150;8.428;2024-01-30T10:59:32;16.03;;;7.87;;
4434;SDS011;46552;52.150;8.428;2024-01-30T11:02:00;12.23;;;7.50;;
4434;SDS011;46552;52.150;8.428;2024-01-30T11:04:27;11.57;;;7.07;;
4434;SDS011;46552;52.150;8.428;2024-01-30T11:07:02;9.40;;;6.53;;
4434;SDS011;46552;52.150;8.428;2024-01-30T11:09:47;13.20;;;7.40;;
4434;SDS011;46552;52.150;8.428;2024-01-30T11:12:16;18.67;;;7.90;;
4434;SDS011;46552;52.150;8.428;2024-01-30T11:14:47;15.43;;;7.53;;
4434;SDS011;46552;52.150;8.428;2024-01-30T11:17:15;14.23;;;7.60;;
4434;SDS011;46552;52.150;8.428;2024-01-30T11:19:42;18.03;;;8.40;;
4434;SDS011;46552;52.150;8.428;2024-01-30T11:22:15;10.93;;;8.00;;
4434;SDS011;46552;52.150;8.428;2024-01-30T11:24:48;11.67;;;8.13;;
4434;SDS011;46552;52.150;8.428;2024-01-30T11:27:16;17.37;;;7.70;;
4434;SDS011;46552;52.150;8.428;2024-01-30T11:29:43;14.57;;;7.20;;
4434;SDS011;46552;52.150;8.428;2024-01-30T11:32:21;13.80;;;8.40;;
4434;SDS011;46552;52.150;8.428;2024-01-30T11:34:49;14.50;;;7.83;;
4434;SDS011;46552;52.150;8.428;2024-01-30T11:37:17;18.77;;;8.90;;
4434;SDS011;46552;52.150;8.428;2024-01-30T11:39:49;15.60;;;8.17;;
4434;SDS011;46552;52.150;8.428;2024-01-30T11:42:17;11.60;;;8.23;;
4434;SDS011;46552;52.150;8.428;2024-01-30T11:44:46;15.30;;;7.80;;
4434;SDS011;46552;52.150;8.428;2024-01-30T11:47:13;14.33;;;8.57;;
4434;SDS011;46552;52.150;8.428;2024-01-30T11:49:41;17.23;;;8.73;;
4434;SDS011;46552;52.150;8.428;2024-01-30T11:52:10;16.83;;;8.13;;
4434;SDS011;46552;52.150;8.428;2024-01-30T11:54:39;10.77;;;7.30;;
4434;SDS011;46552;52.150;8.428;2024-01-30T11:57:08;12.53;;;8.10;;
4434;SDS011;46552;52.150;8.428;2024-01-30T11:59:35;12.63;;;7.37;;
4434;SDS011;46552;52.150;8.428;2024-01-30T12:02:03;17.57;;;8.73;;
4434;SDS011;46552;52.150;8.428;2024-01-30T12:04:30;15.77;;;8.73;;
4434;SDS011;46552;52.150;8.428;2024-01-30T12:06:59;19.37;;;8.90;;
4434;SDS011;46552;52.150;8.428;2024-01-30T12:09:27;15.67;;;8.77;;
4434;SDS011;46552;52.150;8.428;2024-01-30T12:11:54;13.40;;;9.23;;
4434;SDS011;46552;52.150;8.428;2024-01-30T12:14:23;16.63;;;8.27;;
4434;SDS011;46552;52.150;8.428;2024-01-30T12:16:51;13.90;;;9.33;;
4434;SDS011;46552;52.150;8.428;2024-01-30T12:19:22;14.17;;;7.67;;
4434;SDS011;46552;52.150;8.428;2024-01-30T12:21:53;15.93;;;8.83;;
4434;SDS011;46552;52.150;8.428;2024-01-30T12:24:22;18.13;;;8.80;;
4434;SDS011;46552;52.150;8.428;2024-01-30T12:26:50;14.53;;;8.83;;
4434;SDS011;46552;52.150;8.428;2024-01-30T12:29:19;16.73;;;8.80;;
4434;SDS011;46552;52.150;8.428;2024-01-30T12:31:48;12.47;;;8.57;;
4434;SDS011;46552;52.150;8.428;2024-01-30T12:34:19;22.73;;;9.27;;
4434;SDS011;46552;52.150;8.428;2024-01-30T12:36:46;19.13;;;9.00;;
4434;SDS011;46552;52.150;8.428;2024-01-30T12:39:15;17.70;;;8.93;;
4434;SDS011;46552;52.150;8.428;2024-01-30T12:41:43;17.13;;;9.47;;
4434;SDS011;46552;52.150;8.428;2024-01-30T12:44:11;14.93;;;9.13;;
4434;SDS011;46552;52.150;8.428;2024-01-30T12:46:40;13.57;;;8.83;;
4434;SDS011;46552;52.150;8.428;2024-01-30T12:49:09;19.10;;;10.47;;
4434;SDS011;46552;52.150;8.428;2024-01-30T12:51:37;17.17;;;10.37;;
4434;SDS011;46552;52.150;8.428;2024-01-30T12:54:05;21.80;;;9.00;;
4434;SDS011;46552;52.150;8.428;2024-01-30T12:56:33;21.30;;;10.93;;
4434;SDS011;46552;52.150;8.428;2024-01-30T12:59:00;17.70;;;9.90;;
4434;SDS011;46552;52.150;8.428;2024-01-30T13:01:27;14.97;;;8.83;;
4434;SDS011;46552;52.150;8.428;2024-01-30T13:03:54;16.00;;;9.90;;
4434;SDS011;46552;52.150;8.428;2024-01-30T13:06:25;24.77;;;9.07;;
4434;SDS011;46552;52.150;8.428;2024-01-30T13:08:52;19.30;;;10.23;;
4434;SDS011;46552;52.150;8.428;2024-01-30T13:11:19;17.07;;;10.03;;
4434;SDS011;46552;52.150;8.428;2024-01-30T13:13:46;15.87;;;9.53;;
4434;SDS011;46552;52.150;8.428;2024-01-30T13:16:14;17.40;;;9.63;;
4434;SDS011;46552;52.150;8.428;2024-01-30T13:18:41;22.90;;;9.50;;
4434;SDS011;46552;52.150;8.428;2024-01-30T13:21:08;15.60;;;9.57;;
4434;SDS011;46552;52.150;8.428;2024-01-30T13:23:37;16.47;;;10.30;;
4434;SDS011;46552;52.150;8.428;2024-01-30T13:26:04;18.07;;;11.53;;
4434;SDS011;46552;52.150;8.428;2024-01-30T13:28:32;31.87;;;11.27;;
4434;SDS011;46552;52.150;8.428;2024-01-30T13:30:59;16.37;;;10.43;;
4434;SDS011;46552;52.150;8.428;2024-01-30T13:33:27;18.57;;;10.50;;
4434;SDS011;46552;52.150;8.428;2024-01-30T13:35:55;23.73;;;11.07;;
4434;SDS011;46552;52.150;8.428;2024-01-30T13:38:22;29.67;;;11.17;;
4434;SDS011;46552;52.150;8.428;2024-01-30T13:40:51;18.63;;;8.27;;
4434;SDS011;46552;52.150;8.428;2024-01-30T13:43:18;18.53;;;10.10;;
4434;SDS011;46552;52.150;8.428;2024-01-30T13:45:45;17.07;;;10.33;;
4434;SDS011;46552;52.150;8.428;2024-01-30T13:48:13;17.10;;;9.73;;
4434;SDS011;46552;52.150;8.428;2024-01-30T13:50:40;21.03;;;10.50;;
4434;SDS011;46552;52.150;8.428;2024-01-30T13:53:07;19.63;;;10.20;;
4434;SDS011;46552;52.150;8.428;2024-01-30T13:55:36;16.40;;;10.03;;
4434;SDS011;46552;52.150;8.428;2024-01-30T13:58:05;20.63;;;11.10;;
4434;SDS011;46552;52.150;8.428;2024-01-30T14:00:33;15.93;;;10.20;;
4434;SDS011;46552;52.150;8.428;2024-01-30T14:03:00;25.10;;;11.43;;
4434;SDS011;46552;52.150;8.428;2024-01-30T14:05:28;27.40;;;11.53;;
4434;SDS011;46552;52.150;8.428;2024-01-30T14:07:55;21.87;;;10.30;;
4434;SDS011;46552;52.150;8.428;2024-01-30T14:10:25;23.50;;;10.90;;
4434;SDS011;46552;52.150;8.428;2024-01-30T14:12:52;17.23;;;10.63;;
4434;SDS011;46552;52.150;8.428;2024-01-30T14:15:20;21.40;;;10.90;;
4434;SDS011;46552;52.150;8.428;2024-01-30T14:17:48;18.00;;;9.70;;
4434;SDS011;46552;52.150;8.428;2024-01-30T14:20:17;18.40;;;11.07;;
4434;SDS011;46552;52.150;8.428;2024-01-30T14:22:44;15.57;;;11.07;;
4434;SDS011;46552;52.150;8.428;2024-01-30T14:25:11;20.33;;;11.57;;
4434;SDS011;46552;52.150;8.428;2024-01-30T14:27:38;21.40;;;12.60;;
4434;SDS011;46552;52.150;8.428;2024-01-30T14:30:06;24.37;;;10.60;;
4434;SDS011;46552;52.150;8.428;2024-01-30T14:32:39;23.33;;;11.47;;
4434;SDS011;46552;52.150;8.428;2024-01-30T14:35:09;22.10;;;12.83;;
4434;SDS011;46552;52.150;8.428;2024-01-30T14:37:37;25.30;;;12.13;;
4434;SDS011;46552;52.150;8.428;2024-01-30T14:40:05;27.73;;;12.20;;
4434;SDS011;46552;52.150;8.428;2024-01-30T14:42:33;29.37;;;12.40;;